Map

Track Data

SID SEASON NUMBER BASIN SUBBASIN NAME ISO_TIME NATURE LAT LON WMO_WIND WMO_PRES WMO_AGENCY TRACK_TYPE DIST2LAND LANDFALL IFLAG USA_AGENCY USA_ATCF_ID USA_LAT USA_LON USA_RECORD USA_STATUS USA_WIND USA_PRES USA_SSHS USA_R34_NE USA_R34_SE USA_R34_SW USA_R34_NW USA_R50_NE USA_R50_SE USA_R50_SW USA_R50_NW USA_R64_NE USA_R64_SE USA_R64_SW USA_R64_NW USA_POCI USA_ROCI USA_RMW USA_EYE TOKYO_LAT TOKYO_LON TOKYO_GRADE TOKYO_WIND TOKYO_PRES TOKYO_R50_DIR TOKYO_R50_LONG TOKYO_R50_SHORT TOKYO_R30_DIR TOKYO_R30_LONG TOKYO_R30_SHORT TOKYO_LAND CMA_LAT CMA_LON CMA_CAT CMA_WIND CMA_PRES HKO_LAT HKO_LON HKO_CAT HKO_WIND HKO_PRES NEWDELHI_LAT NEWDELHI_LON NEWDELHI_GRADE NEWDELHI_WIND NEWDELHI_PRES NEWDELHI_CI NEWDELHI_DP NEWDELHI_POCI REUNION_LAT REUNION_LON REUNION_TYPE REUNION_WIND REUNION_PRES REUNION_TNUM REUNION_CI REUNION_RMW REUNION_R34_NE REUNION_R34_SE REUNION_R34_SW REUNION_R34_NW REUNION_R50_NE REUNION_R50_SE REUNION_R50_SW REUNION_R50_NW REUNION_R64_NE REUNION_R64_SE REUNION_R64_SW REUNION_R64_NW BOM_LAT BOM_LON BOM_TYPE BOM_WIND BOM_PRES BOM_TNUM BOM_CI BOM_RMW BOM_R34_NE BOM_R34_SE BOM_R34_SW BOM_R34_NW BOM_R50_NE BOM_R50_SE BOM_R50_SW BOM_R50_NW BOM_R64_NE BOM_R64_SE BOM_R64_SW BOM_R64_NW BOM_ROCI BOM_POCI BOM_EYE BOM_POS_METHOD BOM_PRES_METHOD NADI_LAT NADI_LON NADI_CAT NADI_WIND NADI_PRES WELLINGTON_LAT WELLINGTON_LON WELLINGTON_WIND WELLINGTON_PRES DS824_LAT DS824_LON DS824_STAGE DS824_WIND DS824_PRES TD9636_LAT TD9636_LON TD9636_STAGE TD9636_WIND TD9636_PRES TD9635_LAT TD9635_LON TD9635_WIND TD9635_PRES TD9635_ROCI NEUMANN_LAT NEUMANN_LON NEUMANN_CLASS NEUMANN_WIND NEUMANN_PRES MLC_LAT MLC_LON MLC_CLASS MLC_WIND MLC_PRES USA_GUST BOM_GUST BOM_GUST_PER REUNION_GUST REUNION_GUST_PER USA_SEAHGT USA_SEARAD_NE USA_SEARAD_SE USA_SEARAD_SW USA_SEARAD_NW STORM_SPEED STORM_DIR
1944287N16280 1944 70 NA CS NOT_NAMED 1944-10-12 12:00:00 TS 16.0000 -80.5000 30 hurdat_atl main 300 300 O_____________ hurdat_atl AL131944 16.0000 -80.5000 TD 30 -1 4 348
1944287N16280 1944 70 NA CS NOT_NAMED 1944-10-12 15:00:00 TS 16.1975 -80.5500 main 309 299 P_____________ AL131944 16.1975 -80.5500 TD 32 -1 4 347
1944287N16280 1944 70 NA CS NOT_NAMED 1944-10-12 18:00:00 TS 16.4000 -80.6000 35 hurdat_atl main 308 294 O_____________ hurdat_atl AL131944 16.4000 -80.6000 TS 35 0 4 347
1944287N16280 1944 70 NA CS NOT_NAMED 1944-10-12 21:00:00 TS 16.6075 -80.6500 main 294 289 P_____________ AL131944 16.6075 -80.6500 TS 37 0 4 347
1944287N16280 1944 70 NA CS NOT_NAMED 1944-10-13 00:00:00 TS 16.8000 -80.7000 40 hurdat_atl main 289 283 O_____________ hurdat_atl AL131944 16.8000 -80.7000 TS 40 0 4 345
1944287N16280 1944 70 NA CS NOT_NAMED 1944-10-13 03:00:00 TS 16.9575 -80.7500 main 287 282 P_____________ AL131944 16.9575 -80.7500 TS 45 0 3 343
1944287N16280 1944 70 NA CS NOT_NAMED 1944-10-13 06:00:00 TS 17.1000 -80.8000 50 hurdat_atl main 282 277 O_____________ hurdat_atl AL131944 17.1000 -80.8000 TS 50 0 3 341
1944287N16280 1944 70 NA CS NOT_NAMED 1944-10-13 09:00:00 TS 17.2575 -80.8575 main 283 279 P_____________ AL131944 17.2575 -80.8575 TS 55 0 3 343
1944287N16280 1944 70 NA CS NOT_NAMED 1944-10-13 12:00:00 TS 17.4000 -80.9000 60 hurdat_atl main 279 275 O_____________ hurdat_atl AL131944 17.4000 -80.9000 TS 60 0 3 347
1944287N16280 1944 70 NA CS NOT_NAMED 1944-10-13 15:00:00 TS 17.5075 -80.9150 main 275 272 P_____________ AL131944 17.5075 -80.9150 TS 65 1 2 8
1944287N16280 1944 70 NA CS NOT_NAMED 1944-10-13 18:00:00 TS 17.6000 -80.9000 70 hurdat_atl main 272 270 O_____________ hurdat_atl AL131944 17.6000 -80.9000 HU 70 1 2 17
1944287N16280 1944 70 NA CS NOT_NAMED 1944-10-13 21:00:00 TS 17.7075 -80.8575 main 270 257 P_____________ AL131944 17.7075 -80.8575 HU 75 1 2 27
1944287N16280 1944 70 NA CS NOT_NAMED 1944-10-14 00:00:00 TS 17.8000 -80.8000 80 976 hurdat_atl main 257 255 O_____________ hurdat_atl AL131944 17.8000 -80.8000 HU 80 976 1 2 34
1944287N16280 1944 70 NA CS NOT_NAMED 1944-10-14 03:00:00 TS 17.8575 -80.7500 main 245 245 P_____________ AL131944 17.8575 -80.7500 HU 80 1 1 43
1944287N16280 1944 70 NA CS NOT_NAMED 1944-10-14 06:00:00 TS 17.9000 -80.7000 80 hurdat_atl main 245 235 O_____________ hurdat_atl AL131944 17.9000 -80.7000 HU 80 1 1 48
1944287N16280 1944 70 NA CS NOT_NAMED 1944-10-14 09:00:00 TS 17.9500 -80.6425 main 233 233 P_____________ AL131944 17.9500 -80.6425 HU 80 1 1 43
1944287N16280 1944 70 NA CS NOT_NAMED 1944-10-14 12:00:00 TS 18.0000 -80.6000 80 hurdat_atl main 233 233 O_____________ hurdat_atl AL131944 18.0000 -80.6000 HU 80 1 1 17
1944287N16280 1944 70 NA CS NOT_NAMED 1944-10-14 15:00:00 TS 18.0500 -80.6000 main 232 232 P_____________ AL131944 18.0500 -80.6000 HU 80 1 1 0
1944287N16280 1944 70 NA CS NOT_NAMED 1944-10-14 18:00:00 TS 18.1000 -80.6000 80 hurdat_atl main 232 232 O_____________ hurdat_atl AL131944 18.1000 -80.6000 HU 80 1 1 17
1944287N16280 1944 70 NA CS NOT_NAMED 1944-10-14 21:00:00 TS 18.1500 -80.5500 main 232 221 P_____________ AL131944 18.1500 -80.5500 HU 80 1 1 43
1944287N16280 1944 70 NA CS NOT_NAMED 1944-10-15 00:00:00 TS 18.2000 -80.5000 80 hurdat_atl main 221 221 O_____________ hurdat_atl AL131944 18.2000 -80.5000 HU 80 1 1 39
1944287N16280 1944 70 NA CS NOT_NAMED 1944-10-15 03:00:00 TS 18.2425 -80.4700 main 221 221 P_____________ AL131944 18.2425 -80.4700 HU 80 1 1 0
1944287N16280 1944 70 NA CS NOT_NAMED 1944-10-15 06:00:00 TS 18.3000 -80.5000 80 hurdat_atl main 222 222 O_____________ hurdat_atl AL131944 18.3000 -80.5000 HU 80 1 2 318
1944287N16280 1944 70 NA CS NOT_NAMED 1944-10-15 09:00:00 TS 18.3925 -80.6125 main 233 233 P_____________ AL131944 18.3925 -80.6125 HU 82 1 3 305
1944287N16280 1944 70 NA CS NOT_NAMED 1944-10-15 12:00:00 TS 18.5000 -80.8000 85 hurdat_atl main 255 255 O_____________ hurdat_atl AL131944 18.5000 -80.8000 HU 85 2 5 296
1944287N16280 1944 70 NA CS NOT_NAMED 1944-10-15 15:00:00 TS 18.5925 -81.0425 main 277 277 P_____________ AL131944 18.5925 -81.0425 HU 85 2 5 293
1944287N16280 1944 70 NA CS NOT_NAMED 1944-10-15 18:00:00 TS 18.7000 -81.3000 85 hurdat_atl main 310 310 O_____________ hurdat_atl AL131944 18.7000 -81.3000 HU 85 2 5 300
1944287N16280 1944 70 NA CS NOT_NAMED 1944-10-15 21:00:00 TS 18.8500 -81.5075 main 320 291 P_____________ AL131944 18.8500 -81.5075 HU 87 2 5 308
1944287N16280 1944 70 NA CS NOT_NAMED 1944-10-16 00:00:00 TS 19.0000 -81.7000 90 hurdat_atl main 291 273 O_____________ hurdat_atl AL131944 19.0000 -81.7000 HU 90 2 5 304
1944287N16280 1944 70 NA CS NOT_NAMED 1944-10-16 03:00:00 TS 19.1075 -81.9075 main 273 256 P_____________ AL131944 19.1075 -81.9075 HU 90 2 4 298
1944287N16280 1944 70 NA CS NOT_NAMED 1944-10-16 06:00:00 TS 19.2000 -82.1000 90 hurdat_atl main 256 243 O_____________ hurdat_atl AL131944 19.2000 -82.1000 HU 90 2 4 301
1944287N16280 1944 70 NA CS NOT_NAMED 1944-10-16 09:00:00 TS 19.3075 -82.2575 main 240 227 P_____________ AL131944 19.3075 -82.2575 HU 90 2 3 305
1944287N16280 1944 70 NA CS NOT_NAMED 1944-10-16 12:00:00 TS 19.4000 -82.4000 90 hurdat_atl main 227 214 O_____________ hurdat_atl AL131944 19.4000 -82.4000 HU 90 2 3 298
1944287N16280 1944 70 NA CS NOT_NAMED 1944-10-16 15:00:00 TS 19.4575 -82.5575 main 213 212 P_____________ AL131944 19.4575 -82.5575 HU 90 2 3 290
1944287N16280 1944 70 NA CS NOT_NAMED 1944-10-16 18:00:00 TS 19.5000 -82.7000 90 hurdat_atl main 212 212 O_____________ hurdat_atl AL131944 19.5000 -82.7000 HU 90 2 3 290
1944287N16280 1944 70 NA CS NOT_NAMED 1944-10-16 21:00:00 TS 19.5500 -82.8225 main 201 201 P_____________ AL131944 19.5500 -82.8225 HU 90 2 2 298
1944287N16280 1944 70 NA CS NOT_NAMED 1944-10-17 00:00:00 TS 19.6000 -82.9000 90 hurdat_atl main 201 201 O_____________ hurdat_atl AL131944 19.6000 -82.9000 HU 90 2 1 313
1944287N16280 1944 70 NA CS NOT_NAMED 1944-10-17 03:00:00 TS 19.6350 -82.9150 main 201 190 P_____________ AL131944 19.6350 -82.9150 HU 92 2 1 0
1944287N16280 1944 70 NA CS NOT_NAMED 1944-10-17 06:00:00 TS 19.7000 -82.9000 95 hurdat_atl main 190 179 O_____________ hurdat_atl AL131944 19.7000 -82.9000 HU 95 2 2 0
1944287N16280 1944 70 NA CS NOT_NAMED 1944-10-17 09:00:00 TS 19.8125 -82.9000 main 179 156 P_____________ AL131944 19.8125 -82.9000 HU 95 2 3 0
1944287N16280 1944 70 NA CS NOT_NAMED 1944-10-17 12:00:00 TS 20.0000 -82.9000 95 hurdat_atl main 156 134 O_____________ hurdat_atl AL131944 20.0000 -82.9000 HU 95 2 5 0
1944287N16280 1944 70 NA CS NOT_NAMED 1944-10-17 15:00:00 TS 20.2625 -82.9000 main 123 90 P_____________ AL131944 20.2625 -82.9000 HU 100 3 6 1
1944287N16280 1944 70 NA CS NOT_NAMED 1944-10-17 18:00:00 TS 20.6000 -82.9000 105 hurdat_atl main 90 45 O_____________ hurdat_atl AL131944 20.6000 -82.9000 HU 105 3 7 0
1944287N16280 1944 70 NA CS NOT_NAMED 1944-10-17 21:00:00 TS 20.9850 -82.9000 main 45 10 P_____________ AL131944 20.9850 -82.9000 HU 110 3 8 1
1944287N16280 1944 70 NA CS NOT_NAMED 1944-10-18 00:00:00 TS 21.4000 -82.9000 115 hurdat_atl main 10 0 O_____________ hurdat_atl AL131944 21.4000 -82.9000 HU 115 4 8 2
1944287N16280 1944 70 NA CS NOT_NAMED 1944-10-18 03:00:00 TS 21.7925 -82.8926 main 0 0 P_____________ AL131944 21.7925 -82.8926 HU 120 4 8 1
1944287N16280 1944 70 NA CS NOT_NAMED 1944-10-18 06:00:00 TS 22.2000 -82.9000 125 hurdat_atl main 38 0 O_____________ hurdat_atl AL131944 22.2000 -82.9000 HU 125 4 9 356
1944287N16280 1944 70 NA NA NOT_NAMED 1944-10-18 09:00:00 TS 22.6425 -82.9573 main 0 0 P_____________ AL131944 22.6425 -82.9573 HU 120 4 9 355
1944287N16280 1944 70 NA GM NOT_NAMED 1944-10-18 12:00:00 TS 23.1000 -83.0000 115 937 hurdat_atl main 22 22 O_____________ hurdat_atl AL131944 23.1000 -83.0000 HU 115 937 4 9 0
1944287N16280 1944 70 NA NA NOT_NAMED 1944-10-18 15:00:00 TS 23.5193 -82.9536 main 59 59 P_____________ AL131944 23.5193 -82.9536 HU 110 943 3 9 5
1944287N16280 1944 70 NA NA NOT_NAMED 1944-10-18 18:00:00 TS 24.0000 -82.9000 105 949 hurdat_atl main 108 108 O_____________ hurdat_atl AL131944 24.0000 -82.9000 HU 105 949 3 11 3
1944287N16280 1944 70 NA GM NOT_NAMED 1944-10-18 21:00:00 TS 24.6000 -82.9000 105 949 hurdat_atl main 172 120 O_____________ hurdat_atl AL131944 24.6000 -82.9000 L HU 105 949 3 13 8
1944287N16280 1944 70 NA GM NOT_NAMED 1944-10-19 00:00:00 TS 25.3000 -82.7000 100 hurdat_atl main 120 89 I_____________ hurdat_atl AL131944 25.3000 -82.7000 HU 100 953 3 15 8
1944287N16280 1944 70 NA GM NOT_NAMED 1944-10-19 03:00:00 TS 26.0583 -82.6865 main 81 29 P_____________ AL131944 26.0583 -82.6865 HU 95 957 2 16 3
1944287N16280 1944 70 NA GM NOT_NAMED 1944-10-19 06:00:00 TS 26.9000 -82.6000 90 962 hurdat_atl main 29 0 O_____________ hurdat_atl AL131944 26.9000 -82.6000 HU 90 962 2 17 8
1944287N16280 1944 70 NA GM NOT_NAMED 1944-10-19 07:00:00 TS 27.2000 -82.5000 90 962 hurdat_atl main 0 0 O_____________ hurdat_atl AL131944 27.2000 -82.5000 L HU 90 962 2 17 17
1944287N16280 1944 70 NA NA NOT_NAMED 1944-10-19 09:00:00 TS 27.7239 -82.3226 main 0 0 P_____________ AL131944 27.7239 -82.3226 HU 83 964 2 15 16
1944287N16280 1944 70 NA NA NOT_NAMED 1944-10-19 12:00:00 TS 28.4000 -82.1000 75 968 hurdat_atl main 0 0 O_____________ hurdat_atl AL131944 28.4000 -82.1000 HU 75 968 1 14 16
1944287N16280 1944 70 NA NA NOT_NAMED 1944-10-19 15:00:00 TS 29.1033 -81.8859 main 0 0 P_____________ AL131944 29.1033 -81.8859 HU 67 972 1 14 14
1944287N16280 1944 70 NA NA NOT_NAMED 1944-10-19 18:00:00 TS 29.8000 -81.7000 60 976 hurdat_atl main 0 0 O_____________ hurdat_atl AL131944 29.8000 -81.7000 TS 60 976 0 14 12
1944287N16280 1944 70 NA NA NOT_NAMED 1944-10-19 21:00:00 TS 30.5149 -81.5496 main 0 0 P_____________ AL131944 30.5149 -81.5496 TS 57 978 0 14 10
1944287N16280 1944 70 NA NA NOT_NAMED 1944-10-20 00:00:00 TS 31.2000 -81.4000 55 980 hurdat_atl main 0 0 O_____________ hurdat_atl AL131944 31.2000 -81.4000 TS 55 980 0 13 12
1944287N16280 1944 70 NA NA NOT_NAMED 1944-10-20 03:00:00 TS 31.8075 -81.2146 main 0 0 P_____________ AL131944 31.8075 -81.2146 TS 52 982 0 13 16
1944287N16280 1944 70 NA NA NOT_NAMED 1944-10-20 06:00:00 TS 32.4000 -81.0000 50 985 hurdat_atl main 0 0 O_____________ hurdat_atl AL131944 32.4000 -81.0000 TS 50 985 0 13 15
1944287N16280 1944 70 NA NA NOT_NAMED 1944-10-20 09:00:00 TS 33.0118 -80.8300 main 0 0 P_____________ AL131944 33.0118 -80.8300 TS 50 986 0 14 18
1944287N16280 1944 70 NA NA NOT_NAMED 1944-10-20 12:00:00 ET 33.7000 -80.5000 50 988 hurdat_atl main 0 0 O_____________ hurdat_atl AL131944 33.7000 -80.5000 EX 50 988 -4 17 28
1944287N16280 1944 70 NA NA NOT_NAMED 1944-10-20 15:00:00 ET 34.5197 -79.8696 main 0 0 P_____________ AL131944 34.5197 -79.8696 EX 47 990 -4 21 36
1944287N16280 1944 70 NA NA NOT_NAMED 1944-10-20 18:00:00 ET 35.4000 -79.0000 45 993 hurdat_atl main 0 0 O_____________ hurdat_atl AL131944 35.4000 -79.0000 EX 45 993 -4 23 41
1944287N16280 1944 70 NA NA NOT_NAMED 1944-10-20 21:00:00 ET 36.2880 -77.9811 main 0 0 P_____________ AL131944 36.2880 -77.9811 EX 42 994 -4 24 45
1944287N16280 1944 70 NA NA NOT_NAMED 1944-10-21 00:00:00 ET 37.1000 -76.9000 40 996 hurdat_atl main 0 0 O_____________ hurdat_atl AL131944 37.1000 -76.9000 EX 40 996 -4 22 49
1944287N16280 1944 70 NA NA NOT_NAMED 1944-10-21 03:00:00 ET 37.7441 -75.9173 main 8 0 P_____________ AL131944 37.7441 -75.9173 EX 40 -4 19 51
1944287N16280 1944 70 NA NA NOT_NAMED 1944-10-21 06:00:00 ET 38.3000 -75.0000 40 hurdat_atl main 8 8 O_____________ hurdat_atl AL131944 38.3000 -75.0000 EX 40 -4 17 51
1944287N16280 1944 70 NA NA NOT_NAMED 1944-10-21 09:00:00 ET 38.8401 -74.1909 main 54 54 P_____________ AL131944 38.8401 -74.1909 EX 42 -4 17 50
1944287N16280 1944 70 NA NA NOT_NAMED 1944-10-21 12:00:00 ET 39.4000 -73.3000 45 hurdat_atl main 83 83 O_____________ hurdat_atl AL131944 39.4000 -73.3000 EX 45 -4 19 54
1944287N16280 1944 70 NA NA NOT_NAMED 1944-10-21 15:00:00 ET 39.9806 -72.1713 main 95 89 P_____________ AL131944 39.9806 -72.1713 EX 45 -4 23 56
1944287N16280 1944 70 NA NA NOT_NAMED 1944-10-21 18:00:00 ET 40.7000 -70.8000 45 hurdat_atl main 89 41 O_____________ hurdat_atl AL131944 40.7000 -70.8000 EX 45 -4 28 54
1944287N16280 1944 70 NA NA NOT_NAMED 1944-10-21 21:00:00 ET 41.6313 -69.2024 main 67 67 P_____________ AL131944 41.6313 -69.2024 EX 45 -4 32 52
1944287N16280 1944 70 NA NA NOT_NAMED 1944-10-22 00:00:00 ET 42.7000 -67.4000 45 hurdat_atl main 152 0 O_____________ hurdat_atl AL131944 42.7000 -67.4000 EX 45 -4 35 52
1944287N16280 1944 70 NA NA NOT_NAMED 1944-10-22 03:00:00 ET 43.7535 -65.4874 main 0 0 P_____________ AL131944 43.7535 -65.4874 EX 45 -4 36 52
1944287N16280 1944 70 NA NA NOT_NAMED 1944-10-22 06:00:00 ET 44.9000 -63.5000 45 hurdat_atl main 0 0 O_____________ hurdat_atl AL131944 44.9000 -63.5000 EX 45 -4 37 50
1944287N16280 1944 70 NA NA NOT_NAMED 1944-10-22 09:00:00 ET 46.1406 -61.4297 main 0 0 P_____________ AL131944 46.1406 -61.4297 EX 45 -4 38 47
1944287N16280 1944 70 NA NA NOT_NAMED 1944-10-22 12:00:00 ET 47.5000 -59.5000 45 hurdat_atl main 18 0 O_____________ hurdat_atl AL131944 47.5000 -59.5000 EX 45 -4 37 41
1944287N16280 1944 70 NA NA NOT_NAMED 1944-10-22 15:00:00 ET 48.9286 -57.8760 main 0 0 P_____________ AL131944 48.9286 -57.8760 EX 45 -4 36 33
1944287N16280 1944 70 NA NA NOT_NAMED 1944-10-22 18:00:00 ET 50.5000 -56.5000 45 hurdat_atl main 0 0 O_____________ hurdat_atl AL131944 50.5000 -56.5000 EX 45 -4 37 27
1944287N16280 1944 70 NA NA NOT_NAMED 1944-10-22 21:00:00 ET 52.2483 -55.1720 main 34 34 P_____________ AL131944 52.2483 -55.1720 EX 45 -4 38 24
1944287N16280 1944 70 NA NA NOT_NAMED 1944-10-23 00:00:00 ET 54.0000 -54.0000 45 hurdat_atl main 137 137 O_____________ hurdat_atl AL131944 54.0000 -54.0000 EX 45 -4 36 21
1944287N16280 1944 70 NA NA NOT_NAMED 1944-10-23 03:00:00 ET 55.5727 -52.9507 main 293 293 P_____________ AL131944 55.5727 -52.9507 EX 45 -4 32 21
1944287N16280 1944 70 NA NA NOT_NAMED 1944-10-23 06:00:00 ET 57.0000 -52.0000 45 hurdat_atl main 423 326 O_____________ hurdat_atl AL131944 57.0000 -52.0000 EX 45 -4 29 21
1944287N16280 1944 70 NA NA NOT_NAMED 1944-10-23 09:00:00 ET 58.3221 -51.0613 main 326 193 P_____________ AL131944 58.3221 -51.0613 EX 47 -4 27 23
1944287N16280 1944 70 NA NA NOT_NAMED 1944-10-23 12:00:00 ET 59.5000 -50.0000 50 hurdat_atl main 181 50 O_____________ hurdat_atl AL131944 59.5000 -50.0000 EX 50 -4 26 29
1944287N16280 1944 70 NA NA NOT_NAMED 1944-10-23 15:00:00 ET 60.5742 -48.6086 main 39 0 P_____________ AL131944 60.5742 -48.6086 EX 50 -4 25 36
1944287N16280 1944 70 NA NA NOT_NAMED 1944-10-23 18:00:00 ET 61.5000 -47.0000 50 hurdat_atl main 0 0 O_____________ hurdat_atl AL131944 61.5000 -47.0000 EX 50 -4 23 42
1944287N16280 1944 70 NA NA NOT_NAMED 1944-10-23 21:00:00 ET 62.2837 -45.3449 main 0 0 P_____________ AL131944 62.2837 -45.3449 EX 47 -4 22 47
1944287N16280 1944 70 NA NA NOT_NAMED 1944-10-24 00:00:00 ET 63.0000 -43.5000 45 hurdat_atl main 0 0 O_____________ hurdat_atl AL131944 63.0000 -43.5000 EX 45 -4 23 51
1944287N16280 1944 70 NA NA NOT_NAMED 1944-10-24 03:00:00 ET 63.7483 -41.3529 main 0 0 P_____________ AL131944 63.7483 -41.3529 EX 42 -4 25 53
1944287N16280 1944 70 NA NA NOT_NAMED 1944-10-24 06:00:00 ET 64.5000 -39.0000 40 hurdat_atl main 65 58 O_____________ hurdat_atl AL131944 64.5000 -39.0000 EX 40 -4 25 54
1944287N16280 1944 70 NA NA NOT_NAMED 1944-10-24 09:00:00 ET 65.2575 -36.5537 main 52 45 P_____________ AL131944 65.2575 -36.5537 EX 35 -4 26 54
1944287N16280 1944 70 NA NA NOT_NAMED 1944-10-24 12:00:00 ET 66.0000 -34.0000 30 hurdat_atl main 48 O_____________ hurdat_atl AL131944 66.0000 -34.0000 EX 30 -4 25 54

About IBTrACS Database

This database is a web-friendly format of International Best Track Archive for Climate Stewardship (IBTrACS), a global best track data archive curated by NOAA dating back to 1842.

Updated: 2021-12-03